createdAt,value
2023-04-04T00:00:59.622Z,0.00
2023-04-04T00:01:59.585Z,0.00
2023-04-04T00:02:59.640Z,0.00
2023-04-04T00:03:59.672Z,0.00
2023-04-04T00:04:59.459Z,0.00
2023-04-04T00:05:59.435Z,0.00
2023-04-04T00:06:59.387Z,0.00
2023-04-04T00:07:59.339Z,0.00
2023-04-04T00:08:59.307Z,0.00
2023-04-04T00:10:06.270Z,0.00
2023-04-04T00:10:59.244Z,0.00
2023-04-04T00:11:59.203Z,0.00
2023-04-04T00:12:59.242Z,0.00
2023-04-04T00:13:59.107Z,0.00
2023-04-04T00:14:59.112Z,0.00
2023-04-04T00:15:59.081Z,0.00
2023-04-04T00:16:58.985Z,0.00
2023-04-04T00:17:58.979Z,0.00
2023-04-04T00:18:58.966Z,0.00
2023-04-04T00:19:58.883Z,0.00
2023-04-04T00:20:58.881Z,0.00
2023-04-04T00:21:59.392Z,0.00
2023-04-04T00:22:58.751Z,0.00
2023-04-04T00:23:58.723Z,0.00
2023-04-04T00:24:58.675Z,0.00
2023-04-04T00:25:58.630Z,0.00
2023-04-04T00:26:58.652Z,0.00
2023-04-04T00:27:58.553Z,0.00
2023-04-04T00:28:58.521Z,0.00
2023-04-04T00:29:58.481Z,0.00
2023-04-04T00:30:59.394Z,0.00
2023-04-04T00:31:58.525Z,0.00
2023-04-04T00:32:58.473Z,0.00
2023-04-04T00:33:58.324Z,0.00
2023-04-04T00:34:58.343Z,0.00
2023-04-04T00:35:58.243Z,0.00
2023-04-04T00:36:58.205Z,0.00
2023-04-04T00:37:58.221Z,0.00
2023-04-04T00:38:58.125Z,0.00
2023-04-04T00:39:58.098Z,0.00
2023-04-04T00:40:58.056Z,0.00
2023-04-04T00:41:58.004Z,0.00
2023-04-04T00:42:58.025Z,0.00
2023-04-04T00:43:57.961Z,0.00
2023-04-04T00:44:57.891Z,0.00
2023-04-04T00:45:58.018Z,0.00
2023-04-04T00:46:57.820Z,0.00
2023-04-04T00:47:57.903Z,0.00
2023-04-04T00:48:57.730Z,0.00
2023-04-04T00:49:57.703Z,0.00
2023-04-04T00:50:57.664Z,0.00
2023-04-04T00:51:57.725Z,0.00
2023-04-04T00:52:57.630Z,0.00
2023-04-04T00:53:57.620Z,0.00
2023-04-04T00:54:57.496Z,0.00
2023-04-04T00:55:57.457Z,0.00
2023-04-04T00:56:57.417Z,0.00
2023-04-04T00:57:57.526Z,0.00
2023-04-04T00:58:57.369Z,0.00
2023-04-04T00:59:57.296Z,0.00
2023-04-04T01:00:57.290Z,0.00
2023-04-04T01:01:57.237Z,0.00
2023-04-04T01:02:57.275Z,0.00
2023-04-04T01:03:57.161Z,0.00
2023-04-04T01:04:57.102Z,0.00
2023-04-04T01:05:57.061Z,0.00
2023-04-04T01:06:57.021Z,0.00
2023-04-04T01:07:57.143Z,0.00
2023-04-04T01:08:56.942Z,0.00
2023-04-04T01:09:56.927Z,0.00
2023-04-04T01:10:56.875Z,0.00
2023-04-04T01:11:56.839Z,0.00
2023-04-04T01:12:56.778Z,0.00
2023-04-04T01:13:56.800Z,0.00
2023-04-04T01:14:56.728Z,0.00
2023-04-04T01:15:56.709Z,0.00
2023-04-04T01:16:56.655Z,0.00
2023-04-04T01:17:56.587Z,0.00
2023-04-04T01:18:56.557Z,0.00
2023-04-04T01:19:56.556Z,0.00
2023-04-04T01:20:56.472Z,0.00
2023-04-04T01:21:56.428Z,0.00
2023-04-04T01:22:56.398Z,0.00
2023-04-04T01:23:56.400Z,0.00
2023-04-04T01:24:56.314Z,0.00
2023-04-04T01:25:56.320Z,0.00
2023-04-04T01:26:56.217Z,0.00
2023-04-04T01:27:56.187Z,0.00
2023-04-04T01:28:56.214Z,0.00
2023-04-04T01:29:56.879Z,0.00
2023-04-04T01:30:56.108Z,0.00
2023-04-04T01:31:56.022Z,0.00
2023-04-04T01:32:56.039Z,0.00
2023-04-04T01:33:56.000Z,0.00
2023-04-04T01:34:55.912Z,0.00
2023-04-04T01:35:55.879Z,0.00
2023-04-04T01:36:55.833Z,0.00
2023-04-04T01:37:55.809Z,0.00
2023-04-04T01:38:55.810Z,0.00
2023-04-04T01:39:55.723Z,0.00
2023-04-04T01:40:55.664Z,0.00
2023-04-04T01:41:55.631Z,0.00
2023-04-04T01:42:55.610Z,0.00
2023-04-04T01:43:55.560Z,0.00
2023-04-04T01:44:55.570Z,0.00
2023-04-04T01:45:55.488Z,0.00
2023-04-04T01:46:55.431Z,0.00
2023-04-04T01:47:55.415Z,0.00
2023-04-04T01:48:55.353Z,0.00
2023-04-04T01:49:55.378Z,0.00
2023-04-04T01:50:55.293Z,0.00
2023-04-04T01:51:55.238Z,0.00
2023-04-04T01:52:55.202Z,0.00
2023-04-04T01:53:55.149Z,0.00
2023-04-04T01:54:55.138Z,0.00
2023-04-04T01:55:55.125Z,0.00
2023-04-04T01:56:55.039Z,0.00
2023-04-04T01:57:54.993Z,0.00
2023-04-04T01:58:54.981Z,0.00
2023-04-04T01:59:54.917Z,0.00
2023-04-04T02:00:54.880Z,0.00
2023-04-04T02:01:54.936Z,0.00
2023-04-04T02:02:54.876Z,0.00
2023-04-04T02:03:54.852Z,0.00
2023-04-04T02:05:03.914Z,0.00
2023-04-04T02:05:54.684Z,0.00
2023-04-04T02:06:54.694Z,0.00
2023-04-04T02:07:54.597Z,0.00
2023-04-04T02:08:54.563Z,0.00
2023-04-04T02:09:54.528Z,0.00
2023-04-04T02:10:54.478Z,0.00
2023-04-04T02:11:54.443Z,0.00
2023-04-04T02:12:54.458Z,0.00
2023-04-04T02:13:54.365Z,0.00
2023-04-04T02:14:54.327Z,0.00
2023-04-04T02:15:54.317Z,0.00
2023-04-04T02:16:54.236Z,0.00
2023-04-04T02:17:54.306Z,0.00
2023-04-04T02:18:54.173Z,0.00
2023-04-04T02:19:54.115Z,0.00
2023-04-04T02:20:54.076Z,0.00
2023-04-04T02:21:54.039Z,0.00
2023-04-04T02:22:54.032Z,0.00
2023-04-04T02:23:54.865Z,0.00
2023-04-04T02:24:53.976Z,0.00
2023-04-04T02:25:53.878Z,0.00
2023-04-04T02:26:53.839Z,0.00
2023-04-04T02:27:53.806Z,0.00
2023-04-04T02:28:53.760Z,0.00
2023-04-04T02:29:53.779Z,0.00
2023-04-04T02:30:53.696Z,0.00
2023-04-04T02:31:53.666Z,0.00
2023-04-04T02:32:53.653Z,0.00
2023-04-04T02:33:53.557Z,0.00
2023-04-04T02:34:53.570Z,0.00
2023-04-04T02:35:53.520Z,0.00
2023-04-04T02:36:53.447Z,0.00
2023-04-04T02:37:53.428Z,0.00
2023-04-04T02:38:53.362Z,0.00
2023-04-04T02:39:53.377Z,0.00
2023-04-04T02:40:53.281Z,0.00
2023-04-04T02:41:53.241Z,0.00
2023-04-04T02:42:53.193Z,0.00
2023-04-04T02:43:53.164Z,0.00
2023-04-04T02:44:53.118Z,0.00
2023-04-04T02:45:53.145Z,0.00
2023-04-04T02:46:53.076Z,0.00
2023-04-04T02:47:53.113Z,0.00
2023-04-04T02:48:52.968Z,0.00
2023-04-04T02:49:52.922Z,0.00
2023-04-04T02:50:52.963Z,0.00
2023-04-04T02:51:52.899Z,0.00
2023-04-04T02:52:52.797Z,0.00
2023-04-04T02:53:52.774Z,0.00
2023-04-04T02:54:52.730Z,0.00
2023-04-04T02:55:52.698Z,0.00
2023-04-04T02:56:52.729Z,0.00
2023-04-04T02:57:52.609Z,0.00
2023-04-04T02:58:52.579Z,0.00
2023-04-04T02:59:52.529Z,0.00
2023-04-04T03:00:52.504Z,0.00
2023-04-04T03:01:52.528Z,0.00
2023-04-04T03:02:52.618Z,0.00
2023-04-04T03:03:52.448Z,0.00
2023-04-04T03:04:52.344Z,0.00
2023-04-04T03:05:52.292Z,0.00
2023-04-04T03:06:52.294Z,0.00
2023-04-04T03:07:52.205Z,0.00
2023-04-04T03:08:52.244Z,0.00
2023-04-04T03:09:52.135Z,0.00
2023-04-04T03:10:52.106Z,0.00
2023-04-04T03:11:52.049Z,0.00
2023-04-04T03:12:52.005Z,0.00
2023-04-04T03:13:51.972Z,0.00
2023-04-04T03:14:51.987Z,0.00
2023-04-04T03:15:51.880Z,0.00
2023-04-04T03:16:51.907Z,0.00
2023-04-04T03:17:51.946Z,0.00
2023-04-04T03:18:51.777Z,0.00
2023-04-04T03:19:51.752Z,0.00
2023-04-04T03:20:51.742Z,0.00
2023-04-04T03:21:51.664Z,0.00
2023-04-04T03:22:51.744Z,0.00
2023-04-04T03:23:51.581Z,0.00
2023-04-04T03:24:51.534Z,0.00
2023-04-04T03:25:51.494Z,0.00
2023-04-04T03:26:51.497Z,0.00
2023-04-04T03:27:51.409Z,0.00
2023-04-04T03:28:51.617Z,0.00
2023-04-04T03:29:51.318Z,0.00
2023-04-04T03:30:51.279Z,0.00
2023-04-04T03:31:51.274Z,0.00
2023-04-04T03:32:51.335Z,0.00
2023-04-04T03:33:51.174Z,0.00
2023-04-04T03:34:51.117Z,0.00
2023-04-04T03:35:51.162Z,0.00
2023-04-04T03:36:51.053Z,0.00
2023-04-04T03:37:51.014Z,0.00
2023-04-04T03:38:51.117Z,0.00
2023-04-04T03:39:50.931Z,0.00
2023-04-04T03:40:50.883Z,0.00
2023-04-04T03:41:50.847Z,0.00
2023-04-04T03:42:50.837Z,0.00
2023-04-04T03:43:50.759Z,0.00
2023-04-04T03:44:50.791Z,0.00
2023-04-04T03:45:50.788Z,0.00
2023-04-04T03:46:50.654Z,0.00
2023-04-04T03:47:50.632Z,0.00
2023-04-04T03:48:50.699Z,0.00
2023-04-04T03:49:50.527Z,0.00
2023-04-04T03:50:50.562Z,0.00
2023-04-04T03:51:50.453Z,0.00
2023-04-04T03:52:50.404Z,0.00
2023-04-04T03:53:50.364Z,0.00
2023-04-04T03:54:50.325Z,0.00
2023-04-04T03:55:51.337Z,0.00
2023-04-04T03:56:50.307Z,0.00
2023-04-04T03:57:50.206Z,0.00
2023-04-04T03:58:50.197Z,0.00
2023-04-04T03:59:50.120Z,0.00
2023-04-04T04:00:50.090Z,0.00
2023-04-04T04:01:50.041Z,0.00
2023-04-04T04:02:50.134Z,0.00
2023-04-04T04:03:50.057Z,0.00
2023-04-04T04:04:49.923Z,0.00
2023-04-04T04:05:49.879Z,0.00
2023-04-04T04:06:49.844Z,0.00
2023-04-04T04:07:49.853Z,0.00
2023-04-04T04:08:49.763Z,0.00
2023-04-04T04:09:49.714Z,0.00
2023-04-04T04:10:49.675Z,0.00
2023-04-04T04:11:49.647Z,0.00
2023-04-04T04:12:49.653Z,0.00
2023-04-04T04:13:49.624Z,0.00
2023-04-04T04:14:49.515Z,0.00
2023-04-04T04:15:49.498Z,0.00
2023-04-04T04:16:49.433Z,0.00
2023-04-04T04:17:49.441Z,0.00
2023-04-04T04:18:49.409Z,0.00
2023-04-04T04:19:49.309Z,0.00
2023-04-04T04:20:49.267Z,0.00
2023-04-04T04:21:49.232Z,0.00
2023-04-04T04:22:49.619Z,0.00
2023-04-04T04:23:49.966Z,0.00
2023-04-04T04:24:49.131Z,5.63
2023-04-04T04:25:49.080Z,5.63
2023-04-04T04:26:49.038Z,5.63
2023-04-04T04:27:48.996Z,5.63
2023-04-04T04:28:48.955Z,5.63
2023-04-04T04:29:48.971Z,5.63
2023-04-04T04:30:48.912Z,5.63
2023-04-04T04:31:48.935Z,11.25
2023-04-04T04:32:48.814Z,11.25
2023-04-04T04:33:48.847Z,11.25
2023-04-04T04:34:48.766Z,11.25
2023-04-04T04:35:48.684Z,11.25
2023-04-04T04:36:48.639Z,16.88
2023-04-04T04:37:48.597Z,16.88
2023-04-04T04:38:48.551Z,16.88
2023-04-04T04:39:48.698Z,22.50
2023-04-04T04:40:48.534Z,22.50
2023-04-04T04:41:48.432Z,22.50
2023-04-04T04:42:48.386Z,22.50
2023-04-04T04:43:48.350Z,28.13
2023-04-04T04:44:48.325Z,28.13
2023-04-04T04:45:48.267Z,28.13
2023-04-04T04:46:48.329Z,33.75
2023-04-04T04:47:48.206Z,33.75
2023-04-04T04:48:48.195Z,33.75
2023-04-04T04:49:48.123Z,39.38
2023-04-04T04:50:48.077Z,39.38
2023-04-04T04:51:48.038Z,39.38
2023-04-04T04:52:48.055Z,45.00
2023-04-04T04:53:47.976Z,45.00
2023-04-04T04:54:47.996Z,45.00
2023-04-04T04:55:47.960Z,50.63
2023-04-04T04:56:47.826Z,50.63
2023-04-04T04:57:47.789Z,50.63
2023-04-04T04:58:47.866Z,56.25
2023-04-04T04:59:47.718Z,56.25
2023-04-04T05:00:47.715Z,61.88
2023-04-04T05:01:47.636Z,61.88
2023-04-04T05:02:47.711Z,61.88
2023-04-04T05:03:47.553Z,67.50
2023-04-04T05:04:47.559Z,67.50
2023-04-04T05:05:47.484Z,67.50
2023-04-04T05:06:47.430Z,73.13
2023-04-04T05:07:47.377Z,73.13
2023-04-04T05:08:47.352Z,73.13
2023-04-04T05:09:47.374Z,78.75
2023-04-04T05:10:47.338Z,78.75
2023-04-04T05:11:47.266Z,78.75
2023-04-04T05:12:47.179Z,84.38
2023-04-04T05:13:47.223Z,84.38
2023-04-04T05:14:47.101Z,84.38
2023-04-04T05:15:47.130Z,90.00
2023-04-04T05:16:48.772Z,90.00
2023-04-04T05:17:47.048Z,90.00
2023-04-04T05:18:46.947Z,95.63
2023-04-04T05:19:46.922Z,95.63
2023-04-04T05:20:46.857Z,95.63
2023-04-04T05:21:46.894Z,95.63
2023-04-04T05:22:46.804Z,101.25
2023-04-04T05:23:46.743Z,101.25
2023-04-04T05:24:46.708Z,101.25
2023-04-04T05:25:46.665Z,106.88
2023-04-04T05:26:46.626Z,106.88
2023-04-04T05:27:46.639Z,106.88
2023-04-04T05:28:46.579Z,106.88
2023-04-04T05:29:46.508Z,112.50
2023-04-04T05:30:46.467Z,112.50
2023-04-04T05:31:46.467Z,112.50
2023-04-04T05:32:46.479Z,112.50
2023-04-04T05:33:46.386Z,112.50
2023-04-04T05:34:46.304Z,118.13
2023-04-04T05:35:46.317Z,118.13
2023-04-04T05:36:46.263Z,118.13
2023-04-04T05:37:46.179Z,118.13
2023-04-04T05:38:46.148Z,123.75
2023-04-04T05:39:46.161Z,123.75
2023-04-04T05:40:46.122Z,123.75
2023-04-04T05:41:46.020Z,123.75
2023-04-04T05:42:46.059Z,123.75
2023-04-04T05:43:45.936Z,129.38
2023-04-04T05:44:45.958Z,129.38
2023-04-04T05:45:45.892Z,129.38
2023-04-04T05:46:45.850Z,129.38
2023-04-04T05:47:45.855Z,129.38
2023-04-04T05:48:45.780Z,129.38
2023-04-04T05:49:45.794Z,135.00
2023-04-04T05:50:45.667Z,135.00
2023-04-04T05:51:45.626Z,135.00
2023-04-04T05:52:45.588Z,135.00
2023-04-04T05:53:45.548Z,135.00
2023-04-04T05:54:45.500Z,135.00
2023-04-04T05:55:45.522Z,140.63
2023-04-04T05:56:45.448Z,140.63
2023-04-04T05:57:45.386Z,140.63
2023-04-04T05:58:45.351Z,140.63
2023-04-04T05:59:45.311Z,140.63
2023-04-04T06:00:45.283Z,140.63
2023-04-04T06:01:45.292Z,140.63
2023-04-04T06:02:45.323Z,146.25
2023-04-04T06:03:45.209Z,146.25
2023-04-04T06:04:45.124Z,146.25
2023-04-04T06:05:45.127Z,146.25
2023-04-04T06:06:45.037Z,146.25
2023-04-04T06:07:45.053Z,146.25
2023-04-04T06:09:44.898Z,151.88
2023-04-04T06:10:44.867Z,151.88
2023-04-04T06:11:44.822Z,151.88
2023-04-04T06:12:44.818Z,151.88
2023-04-04T06:13:44.854Z,151.88
2023-04-04T06:14:44.709Z,151.88
2023-04-04T06:15:44.710Z,151.88
2023-04-04T06:16:44.636Z,151.88
2023-04-04T06:17:44.635Z,157.50
2023-04-04T06:18:44.546Z,157.50
2023-04-04T06:19:44.589Z,157.50
2023-04-04T06:20:44.471Z,157.50
2023-04-04T06:21:44.441Z,157.50
2023-04-04T06:22:44.397Z,157.50
2023-04-04T06:23:44.351Z,157.50
2023-04-04T06:24:44.315Z,157.50
2023-04-04T06:25:44.347Z,157.50
2023-04-04T06:26:44.227Z,163.13
2023-04-04T06:27:44.195Z,163.13
2023-04-04T06:28:44.149Z,163.13
2023-04-04T06:29:44.189Z,163.13
2023-04-04T06:30:44.078Z,163.13
2023-04-04T06:31:44.112Z,163.13
2023-04-04T06:32:44.054Z,163.13
2023-04-04T06:33:43.968Z,163.13
2023-04-04T06:34:43.921Z,163.13
2023-04-04T06:35:43.882Z,163.13
2023-04-04T06:36:43.856Z,163.13
2023-04-04T06:37:43.855Z,163.13
2023-04-04T06:38:43.773Z,168.75
2023-04-04T06:39:43.731Z,168.75
2023-04-04T06:40:43.684Z,168.75
2023-04-04T06:41:43.641Z,168.75
2023-04-04T06:42:43.603Z,168.75
2023-04-04T06:43:43.626Z,168.75
2023-04-04T06:44:43.533Z,168.75
2023-04-04T06:45:43.488Z,168.75
2023-04-04T06:46:43.469Z,168.75
2023-04-04T06:47:43.431Z,168.75
2023-04-04T06:48:43.424Z,168.75
2023-04-04T06:49:43.393Z,168.75
2023-04-04T06:50:43.352Z,168.75
2023-04-04T06:51:43.253Z,174.38
2023-04-04T06:52:43.209Z,174.38
2023-04-04T06:53:43.172Z,174.38
2023-04-04T06:54:43.146Z,174.38
2023-04-04T06:55:43.170Z,174.38
2023-04-04T06:56:43.054Z,174.38
2023-04-04T06:57:43.024Z,174.38
2023-04-04T06:58:42.980Z,174.38
2023-04-04T06:59:44.992Z,174.38
2023-04-04T07:00:43.096Z,180.00
2023-04-04T07:01:42.924Z,180.00
2023-04-04T07:02:42.985Z,180.00
2023-04-04T07:03:42.784Z,180.00
2023-04-04T07:04:42.756Z,180.00
2023-04-04T07:05:42.709Z,180.00
2023-04-04T07:06:42.681Z,180.00
2023-04-04T07:07:42.694Z,180.00
2023-04-04T07:08:42.600Z,180.00
2023-04-04T07:09:42.652Z,180.00
2023-04-04T07:10:42.949Z,180.00
2023-04-04T07:11:42.490Z,180.00
2023-04-04T07:12:42.437Z,180.00
2023-04-04T07:13:42.481Z,185.63
2023-04-04T07:14:42.357Z,180.00
2023-04-04T07:15:42.360Z,180.00
2023-04-04T07:16:42.361Z,180.00
2023-04-04T07:17:42.273Z,180.00
2023-04-04T07:18:42.206Z,180.00
2023-04-04T07:19:42.220Z,180.00
2023-04-04T07:20:42.134Z,185.63
2023-04-04T07:21:42.094Z,185.63
2023-04-04T07:22:42.151Z,185.63
2023-04-04T07:23:42.013Z,185.63
2023-04-04T07:24:41.970Z,185.63
2023-04-04T07:25:43.871Z,185.63
2023-04-04T07:26:41.901Z,185.63
2023-04-04T07:27:41.930Z,185.63
2023-04-04T07:28:41.888Z,185.63
2023-04-04T07:29:41.786Z,185.63
2023-04-04T07:30:41.868Z,185.63
2023-04-04T07:31:41.727Z,185.63
2023-04-04T07:32:41.689Z,185.63
2023-04-04T07:33:41.695Z,185.63
2023-04-04T07:34:41.585Z,191.25
2023-04-04T07:35:41.577Z,191.25
2023-04-04T07:36:41.505Z,191.25
2023-04-04T07:37:41.471Z,191.25
2023-04-04T07:38:41.435Z,191.25
2023-04-04T07:39:41.449Z,191.25
2023-04-04T07:40:41.577Z,191.25
2023-04-04T07:41:41.322Z,191.25
2023-04-04T07:42:41.280Z,191.25
2023-04-04T07:43:41.258Z,191.25
2023-04-04T07:44:41.222Z,191.25
2023-04-04T07:45:41.324Z,191.25
2023-04-04T07:46:41.118Z,191.25
2023-04-04T07:47:41.097Z,191.25
2023-04-04T07:48:41.051Z,191.25
2023-04-04T07:49:41.016Z,191.25
2023-04-04T07:50:41.238Z,180.00
2023-04-04T07:51:40.978Z,180.00
2023-04-04T07:52:40.899Z,180.00
2023-04-04T07:53:40.937Z,185.63
2023-04-04T07:54:41.484Z,191.25
2023-04-04T07:55:40.781Z,191.25
2023-04-04T07:56:40.734Z,185.63
2023-04-04T07:57:40.800Z,185.63
2023-04-04T07:58:40.661Z,185.63
2023-04-04T07:59:40.627Z,191.25
2023-04-04T08:00:40.732Z,196.88
2023-04-04T08:01:40.550Z,196.88
2023-04-04T08:02:40.664Z,196.88
2023-04-04T08:03:40.710Z,202.50
2023-04-04T08:04:40.474Z,219.38
2023-04-04T08:05:40.392Z,219.38
2023-04-04T08:06:40.369Z,213.75
2023-04-04T08:07:40.323Z,213.75
2023-04-04T08:08:40.288Z,213.75
2023-04-04T08:09:40.302Z,213.75
2023-04-04T08:10:40.479Z,208.13
2023-04-04T08:11:40.180Z,202.50
2023-04-04T08:12:40.131Z,208.13
2023-04-04T08:13:40.089Z,208.13
2023-04-04T08:14:40.087Z,236.25
2023-04-04T08:15:40.105Z,253.13
2023-04-04T08:16:39.985Z,247.50
2023-04-04T08:17:40.004Z,225.00
2023-04-04T08:18:39.917Z,208.13
2023-04-04T08:19:39.875Z,202.50
2023-04-04T08:20:39.998Z,202.50
2023-04-04T08:21:39.855Z,202.50
2023-04-04T08:22:39.754Z,208.13
2023-04-04T08:23:39.711Z,208.13
2023-04-04T08:24:39.680Z,202.50
2023-04-04T08:25:39.638Z,213.75
2023-04-04T08:26:39.617Z,202.50
2023-04-04T08:27:39.658Z,208.13
2023-04-04T08:28:39.556Z,213.75
2023-04-04T08:29:39.479Z,213.75
2023-04-04T08:30:39.610Z,225.00
2023-04-04T08:31:39.457Z,213.75
2023-04-04T08:32:39.394Z,213.75
2023-04-04T08:33:47.150Z,213.75
2023-04-04T08:34:39.296Z,213.75
2023-04-04T08:35:39.291Z,219.38
2023-04-04T08:36:39.225Z,225.00
2023-04-04T08:37:39.185Z,213.75
2023-04-04T08:38:39.161Z,208.13
2023-04-04T08:39:39.181Z,202.50
2023-04-04T08:40:39.189Z,202.50
2023-04-04T08:41:39.037Z,202.50
2023-04-04T08:42:38.992Z,202.50
2023-04-04T08:43:38.964Z,208.13
2023-04-04T08:44:38.926Z,202.50
2023-04-04T08:45:38.963Z,202.50
2023-04-04T08:46:38.867Z,202.50
2023-04-04T08:47:38.859Z,208.13
2023-04-04T08:48:38.806Z,202.50
2023-04-04T08:49:38.754Z,196.88
2023-04-04T08:50:39.124Z,191.25
2023-04-04T08:51:38.751Z,202.50
2023-04-04T08:52:38.638Z,202.50
2023-04-04T08:53:38.601Z,202.50
2023-04-04T08:54:38.564Z,202.50
2023-04-04T08:55:38.519Z,202.50
2023-04-04T08:56:38.479Z,202.50
2023-04-04T08:57:38.504Z,202.50
2023-04-04T08:58:38.403Z,202.50
2023-04-04T08:59:38.389Z,208.13
2023-04-04T09:00:38.750Z,208.13
2023-04-04T09:01:38.306Z,208.13
2023-04-04T09:02:38.389Z,213.75
2023-04-04T09:03:38.267Z,219.38
2023-04-04T09:04:38.199Z,219.38
2023-04-04T09:05:38.153Z,213.75
2023-04-04T09:06:38.224Z,219.38
2023-04-04T09:07:39.397Z,225.00
2023-04-04T09:08:38.041Z,236.25
2023-04-04T09:09:38.081Z,241.88
2023-04-04T09:10:38.201Z,241.88
2023-04-04T09:11:37.923Z,230.63
2023-04-04T09:12:37.887Z,219.38
2023-04-04T09:13:40.066Z,219.38
2023-04-04T09:14:37.819Z,219.38
2023-04-04T09:15:37.854Z,225.00
2023-04-04T09:16:37.785Z,225.00
2023-04-04T09:17:37.719Z,230.63
2023-04-04T09:18:37.661Z,230.63
2023-04-04T09:19:37.619Z,236.25
2023-04-04T09:20:37.824Z,241.88
2023-04-04T09:21:37.612Z,258.75
2023-04-04T09:22:37.522Z,270.00
2023-04-04T09:23:37.488Z,258.75
2023-04-04T09:24:37.436Z,286.88
2023-04-04T09:25:37.416Z,275.63
2023-04-04T09:26:37.375Z,264.38
2023-04-04T09:27:37.388Z,264.38
2023-04-04T09:28:37.299Z,264.38
2023-04-04T09:29:37.273Z,281.25
2023-04-04T09:30:37.236Z,298.13
2023-04-04T09:31:37.234Z,309.38
2023-04-04T09:32:37.164Z,331.88
2023-04-04T09:33:37.156Z,348.75
2023-04-04T09:34:37.100Z,326.25
2023-04-04T09:35:37.052Z,303.75
2023-04-04T09:36:36.993Z,292.50
2023-04-04T09:37:36.960Z,292.50
2023-04-04T09:38:36.976Z,298.13
2023-04-04T09:39:36.938Z,309.38
2023-04-04T09:40:36.929Z,320.63
2023-04-04T09:41:36.806Z,326.25
2023-04-04T09:42:36.833Z,331.88
2023-04-04T09:43:36.740Z,343.13
2023-04-04T09:44:36.704Z,354.38
2023-04-04T09:45:36.737Z,376.88
2023-04-04T09:46:36.792Z,410.63
2023-04-04T09:47:36.635Z,438.75
2023-04-04T09:48:36.555Z,461.25
2023-04-04T09:49:36.549Z,478.13
2023-04-04T09:50:36.487Z,500.63
2023-04-04T09:51:36.516Z,506.25
2023-04-04T09:52:36.431Z,511.88
2023-04-04T09:53:36.384Z,534.38
2023-04-04T09:54:40.269Z,596.25
2023-04-04T09:55:36.367Z,618.75
2023-04-04T09:56:36.264Z,607.50
2023-04-04T09:57:36.372Z,607.50
2023-04-04T09:58:36.341Z,607.50
2023-04-04T09:59:36.308Z,658.13
2023-04-04T10:00:36.136Z,708.75
2023-04-04T10:01:36.101Z,669.38
2023-04-04T10:02:36.087Z,635.63
2023-04-04T10:03:36.180Z,624.38
2023-04-04T10:04:36.094Z,630.00
2023-04-04T10:05:35.965Z,663.75
2023-04-04T10:06:35.917Z,697.50
2023-04-04T10:07:35.885Z,669.38
2023-04-04T10:08:35.912Z,646.88
2023-04-04T10:09:35.904Z,646.88
2023-04-04T10:10:35.775Z,607.50
2023-04-04T10:11:35.745Z,556.88
2023-04-04T10:12:35.711Z,495.00
2023-04-04T10:13:35.692Z,450.00
2023-04-04T10:14:35.638Z,438.75
2023-04-04T10:15:35.885Z,444.38
2023-04-04T10:16:35.569Z,478.13
2023-04-04T10:17:35.559Z,517.50
2023-04-04T10:18:35.550Z,551.25
2023-04-04T10:19:35.471Z,585.00
2023-04-04T10:20:35.432Z,568.13
2023-04-04T10:21:35.609Z,523.13
2023-04-04T10:22:35.461Z,472.50
2023-04-04T10:23:35.437Z,455.63
2023-04-04T10:24:35.329Z,455.63
2023-04-04T10:25:35.274Z,472.50
2023-04-04T10:26:35.440Z,483.75
2023-04-04T10:27:35.306Z,506.25
2023-04-04T10:28:35.278Z,540.00
2023-04-04T10:29:35.224Z,618.75
2023-04-04T10:30:35.118Z,691.88
2023-04-04T10:31:35.183Z,697.50
2023-04-04T10:32:35.261Z,686.25
2023-04-04T10:33:35.015Z,646.88
2023-04-04T10:34:35.051Z,613.13
2023-04-04T10:35:35.062Z,601.88
2023-04-04T10:36:34.927Z,579.38
2023-04-04T10:37:35.874Z,523.13
2023-04-04T10:38:35.060Z,478.13
2023-04-04T10:39:34.891Z,461.25
2023-04-04T10:40:34.889Z,433.13
2023-04-04T10:41:34.732Z,450.00
2023-04-04T10:42:34.811Z,466.88
2023-04-04T10:43:34.780Z,489.38
2023-04-04T10:44:34.860Z,500.63
2023-04-04T10:45:34.689Z,506.25
2023-04-04T10:46:34.749Z,517.50
2023-04-04T10:47:34.706Z,528.75
2023-04-04T10:48:34.616Z,523.13
2023-04-04T10:49:34.644Z,506.25
2023-04-04T10:50:34.607Z,523.13
2023-04-04T10:51:45.190Z,500.63
2023-04-04T10:52:34.467Z,500.63
2023-04-04T10:53:34.342Z,478.13
2023-04-04T10:54:34.315Z,455.63
2023-04-04T10:55:34.315Z,410.63
2023-04-04T10:56:37.314Z,399.38
2023-04-04T10:57:34.220Z,388.13
2023-04-04T10:58:34.224Z,388.13
2023-04-04T10:59:34.327Z,382.50
2023-04-04T11:00:34.366Z,371.25
2023-04-04T11:01:34.100Z,365.63
2023-04-04T11:02:34.119Z,382.50
2023-04-04T11:03:33.959Z,388.13
2023-04-04T11:04:33.967Z,376.88
2023-04-04T11:05:33.891Z,393.75
2023-04-04T11:06:33.863Z,427.50
2023-04-04T11:07:33.819Z,450.00
2023-04-04T11:08:33.870Z,472.50
2023-04-04T11:09:33.762Z,478.13
2023-04-04T11:10:33.740Z,523.13
2023-04-04T11:11:33.678Z,534.38
2023-04-04T11:12:33.700Z,540.00
2023-04-04T11:13:33.617Z,511.88
2023-04-04T11:14:33.656Z,511.88
2023-04-04T11:15:33.552Z,500.63
2023-04-04T11:16:33.530Z,489.38
2023-04-04T11:17:33.495Z,466.88
2023-04-04T11:18:34.284Z,466.88
2023-04-04T11:19:33.421Z,438.75
2023-04-04T11:20:33.444Z,410.63
2023-04-04T11:21:33.350Z,382.50
2023-04-04T11:22:33.298Z,371.25
2023-04-04T11:23:33.297Z,376.88
2023-04-04T11:24:33.233Z,382.50
2023-04-04T11:25:33.207Z,405.00
2023-04-04T11:26:33.226Z,433.13
2023-04-04T11:27:33.159Z,466.88
2023-04-04T11:28:33.093Z,511.88
2023-04-04T11:29:33.092Z,562.50
2023-04-04T11:30:33.038Z,579.38
2023-04-04T11:31:33.020Z,556.88
2023-04-04T11:32:33.035Z,523.13
2023-04-04T11:33:33.024Z,489.38
2023-04-04T11:34:32.923Z,455.63
2023-04-04T11:35:32.873Z,421.88
2023-04-04T11:36:32.828Z,393.75
2023-04-04T11:37:32.787Z,371.25
2023-04-04T11:38:32.813Z,371.25
2023-04-04T11:39:32.729Z,376.88
2023-04-04T11:40:32.680Z,388.13
2023-04-04T11:41:32.648Z,410.63
2023-04-04T11:42:32.611Z,450.00
2023-04-04T11:43:32.594Z,478.13
2023-04-04T11:44:32.627Z,500.63
2023-04-04T11:45:32.513Z,511.88
2023-04-04T11:46:33.459Z,523.13
2023-04-04T11:47:32.473Z,551.25
2023-04-04T11:48:32.405Z,545.63
2023-04-04T11:49:32.375Z,545.63
2023-04-04T11:50:32.397Z,540.00
2023-04-04T11:51:32.346Z,506.25
2023-04-04T11:52:32.264Z,461.25
2023-04-04T11:53:32.233Z,483.75
2023-04-04T11:54:32.208Z,506.25
2023-04-04T11:55:32.160Z,534.38
2023-04-04T11:56:32.210Z,545.63
2023-04-04T11:57:32.096Z,534.38
2023-04-04T11:58:32.066Z,540.00
2023-04-04T11:59:32.076Z,534.38
2023-04-04T12:00:31.988Z,506.25
2023-04-04T12:01:31.949Z,478.13
2023-04-04T12:02:32.357Z,489.38
2023-04-04T12:03:32.129Z,478.13
2023-04-04T12:04:31.870Z,495.00
2023-04-04T12:05:31.965Z,506.25
2023-04-04T12:06:31.796Z,478.13
2023-04-04T12:07:31.755Z,478.13
2023-04-04T12:08:31.800Z,461.25
2023-04-04T12:09:31.689Z,472.50
2023-04-04T12:10:31.656Z,534.38
2023-04-04T12:11:31.623Z,585.00
2023-04-04T12:12:31.583Z,596.25
2023-04-04T12:13:31.563Z,579.38
2023-04-04T12:14:31.584Z,556.88
2023-04-04T12:15:31.482Z,540.00
2023-04-04T12:16:31.449Z,534.38
2023-04-04T12:17:31.431Z,540.00
2023-04-04T12:18:31.384Z,500.63
2023-04-04T12:19:31.356Z,472.50
2023-04-04T12:20:31.422Z,483.75
2023-04-04T12:21:31.280Z,500.63
2023-04-04T12:22:32.097Z,489.38
2023-04-04T12:23:31.227Z,489.38
2023-04-04T12:24:31.189Z,489.38
2023-04-04T12:25:31.143Z,489.38
2023-04-04T12:26:31.193Z,461.25
2023-04-04T12:27:31.084Z,450.00
2023-04-04T12:28:31.061Z,427.50
2023-04-04T12:29:31.016Z,438.75
2023-04-04T12:30:30.985Z,450.00
2023-04-04T12:31:30.999Z,461.25
2023-04-04T12:32:31.002Z,472.50
2023-04-04T12:33:30.877Z,483.75
2023-04-04T12:34:30.875Z,517.50
2023-04-04T12:35:30.816Z,556.88
2023-04-04T12:36:30.797Z,618.75
2023-04-04T12:37:30.746Z,669.38
2023-04-04T12:38:30.764Z,708.75
2023-04-04T12:39:30.698Z,725.63
2023-04-04T12:40:30.647Z,714.38
2023-04-04T12:41:30.633Z,697.50
2023-04-04T12:42:30.568Z,691.88
2023-04-04T12:43:30.539Z,658.13
2023-04-04T12:44:30.565Z,601.88
2023-04-04T12:45:30.467Z,551.25
2023-04-04T12:46:30.482Z,500.63
2023-04-04T12:47:30.435Z,483.75
2023-04-04T12:48:30.375Z,472.50